首页
METAR-TAF:

METAR-TAF

机场 :

揭阳潮汕国际机场

汕头, 中华人民共和国

纬度: 23-24N, 经度: 116-41E, 海拔: 3米

当前天气观测

该预报发布于27分钟前的04:00 UTC
静风
温度 22°C
湿度 88%
气压 1018 hPa
能見度: 7000
散云层高于1100英尺
阴天层高于4000英尺

METAR: ZGOW 180400Z 00000MPS 7000 SCT011 OVC040 22/20 Q1018 NOSIG

时间: 12:27 (04:27 UTC)

预报

该预报发布于9小时和23分钟前的19:04 UTC
预报有效从18日的 00点(UTC)到 18日的 24点(UTC)
风速6节,风向东转东南
能見度: 6000
少量云层高于1800英尺
多云层高于4000英尺

TAF: ZGOW 171904Z 1800/1824 11003MPS 6000 FEW018 BKN040 TX24/1806Z TN19/1822Z

超过4000个机场的气象观测和天气预报(METAR&TAF报告)。

可查询的气象台以黄色和红色小点在地图上表示。

将鼠标移到小点上方,可查看气象台名称。

然后点击查看天气观测和预报。

如需切换地图:点击带黑十字的绿色按钮放大地图;点击带横线的绿色按钮缩小地图;或者点击绿色箭头查看邻近地区的地图。


METAR-TAF: